sensor_id;sensor_type;location;lat;lon;timestamp;temperature;humidity
18450;DHT22;9354;50.194;7.690;2024-02-26T00:01:04;7.10;99.90
18450;DHT22;9354;50.194;7.690;2024-02-26T00:03:31;7.20;99.90
18450;DHT22;9354;50.194;7.690;2024-02-26T00:06:03;7.20;99.90
18450;DHT22;9354;50.194;7.690;2024-02-26T00:08:30;7.10;99.90
18450;DHT22;9354;50.194;7.690;2024-02-26T00:10:58;7.10;99.90
18450;DHT22;9354;50.194;7.690;2024-02-26T00:13:25;7.10;99.90
18450;DHT22;9354;50.194;7.690;2024-02-26T00:15:52;7.10;99.90
18450;DHT22;9354;50.194;7.690;2024-02-26T00:18:20;7.10;99.90
18450;DHT22;9354;50.194;7.690;2024-02-26T00:20:47;7.10;99.90
18450;DHT22;9354;50.194;7.690;2024-02-26T00:23:16;7.10;99.90
18450;DHT22;9354;50.194;7.690;2024-02-26T00:25:43;7.20;99.90
18450;DHT22;9354;50.194;7.690;2024-02-26T00:28:11;7.20;99.90
18450;DHT22;9354;50.194;7.690;2024-02-26T00:30:39;7.20;99.90
18450;DHT22;9354;50.194;7.690;2024-02-26T00:33:06;7.20;99.90
18450;DHT22;9354;50.194;7.690;2024-02-26T00:35:34;7.20;99.90
18450;DHT22;9354;50.194;7.690;2024-02-26T00:38:01;7.20;99.90
18450;DHT22;9354;50.194;7.690;2024-02-26T00:40:30;7.20;99.90
18450;DHT22;9354;50.194;7.690;2024-02-26T00:42:58;7.20;99.90
18450;DHT22;9354;50.194;7.690;2024-02-26T00:45:25;7.20;99.90
18450;DHT22;9354;50.194;7.690;2024-02-26T00:47:53;7.20;99.90
18450;DHT22;9354;50.194;7.690;2024-02-26T00:50:20;7.10;99.90
18450;DHT22;9354;50.194;7.690;2024-02-26T00:52:47;7.10;99.90
18450;DHT22;9354;50.194;7.690;2024-02-26T00:55:15;7.00;99.90
18450;DHT22;9354;50.194;7.690;2024-02-26T00:57:44;7.00;99.90
18450;DHT22;9354;50.194;7.690;2024-02-26T01:00:12;6.90;99.90
18450;DHT22;9354;50.194;7.690;2024-02-26T01:02:39;6.90;99.90
18450;DHT22;9354;50.194;7.690;2024-02-26T01:05:08;6.90;99.90
18450;DHT22;9354;50.194;7.690;2024-02-26T01:07:36;6.90;99.90
18450;DHT22;9354;50.194;7.690;2024-02-26T01:10:04;6.90;99.90
18450;DHT22;9354;50.194;7.690;2024-02-26T01:12:32;6.90;99.90
18450;DHT22;9354;50.194;7.690;2024-02-26T01:15:01;6.90;99.90
18450;DHT22;9354;50.194;7.690;2024-02-26T01:17:29;6.90;99.90
18450;DHT22;9354;50.194;7.690;2024-02-26T01:19:56;6.90;99.90
18450;DHT22;9354;50.194;7.690;2024-02-26T01:22:23;6.80;99.90
18450;DHT22;9354;50.194;7.690;2024-02-26T01:24:51;6.80;99.90
18450;DHT22;9354;50.194;7.690;2024-02-26T01:27:18;6.80;99.90
18450;DHT22;9354;50.194;7.690;2024-02-26T01:29:47;6.90;99.90
18450;DHT22;9354;50.194;7.690;2024-02-26T01:32:15;6.90;99.90
18450;DHT22;9354;50.194;7.690;2024-02-26T01:34:43;6.90;99.90
18450;DHT22;9354;50.194;7.690;2024-02-26T01:37:10;7.00;99.90
18450;DHT22;9354;50.194;7.690;2024-02-26T01:39:37;7.00;99.90
18450;DHT22;9354;50.194;7.690;2024-02-26T01:42:06;7.10;99.90
18450;DHT22;9354;50.194;7.690;2024-02-26T01:44:34;7.10;99.90
18450;DHT22;9354;50.194;7.690;2024-02-26T01:47:01;7.20;99.90
18450;DHT22;9354;50.194;7.690;2024-02-26T01:49:31;7.20;99.90
18450;DHT22;9354;50.194;7.690;2024-02-26T01:51:58;7.20;99.90
18450;DHT22;9354;50.194;7.690;2024-02-26T01:54:26;7.20;99.90
18450;DHT22;9354;50.194;7.690;2024-02-26T01:56:54;7.20;99.90
18450;DHT22;9354;50.194;7.690;2024-02-26T01:59:22;7.20;99.90
18450;DHT22;9354;50.194;7.690;2024-02-26T02:01:55;7.10;99.90
18450;DHT22;9354;50.194;7.690;2024-02-26T02:04:23;7.10;99.90
18450;DHT22;9354;50.194;7.690;2024-02-26T02:06:53;7.10;99.90
18450;DHT22;9354;50.194;7.690;2024-02-26T02:09:20;7.00;99.90
18450;DHT22;9354;50.194;7.690;2024-02-26T02:11:49;7.10;99.90
18450;DHT22;9354;50.194;7.690;2024-02-26T02:14:16;7.10;99.90
18450;DHT22;9354;50.194;7.690;2024-02-26T02:16:44;7.10;99.90
18450;DHT22;9354;50.194;7.690;2024-02-26T02:19:11;7.10;99.90
18450;DHT22;9354;50.194;7.690;2024-02-26T02:21:40;7.10;99.90
18450;DHT22;9354;50.194;7.690;2024-02-26T02:24:07;7.10;99.90
18450;DHT22;9354;50.194;7.690;2024-02-26T02:26:35;7.00;99.90
18450;DHT22;9354;50.194;7.690;2024-02-26T02:29:03;7.00;99.90
18450;DHT22;9354;50.194;7.690;2024-02-26T02:31:31;6.90;99.90
18450;DHT22;9354;50.194;7.690;2024-02-26T02:33:58;6.80;99.90
18450;DHT22;9354;50.194;7.690;2024-02-26T02:36:26;6.80;99.90
18450;DHT22;9354;50.194;7.690;2024-02-26T02:38:55;6.70;99.90
18450;DHT22;9354;50.194;7.690;2024-02-26T02:41:22;6.70;99.90
18450;DHT22;9354;50.194;7.690;2024-02-26T02:43:50;6.60;99.90
18450;DHT22;9354;50.194;7.690;2024-02-26T02:46:17;6.50;99.90
18450;DHT22;9354;50.194;7.690;2024-02-26T02:48:44;6.50;99.90
18450;DHT22;9354;50.194;7.690;2024-02-26T02:51:12;6.40;99.90
18450;DHT22;9354;50.194;7.690;2024-02-26T02:53:39;6.40;99.90
18450;DHT22;9354;50.194;7.690;2024-02-26T02:56:08;6.30;99.90
18450;DHT22;9354;50.194;7.690;2024-02-26T02:58:35;6.30;99.90
18450;DHT22;9354;50.194;7.690;2024-02-26T03:01:03;6.30;99.90
18450;DHT22;9354;50.194;7.690;2024-02-26T03:03:30;6.20;99.90
18450;DHT22;9354;50.194;7.690;2024-02-26T03:05:58;6.20;99.90
18450;DHT22;9354;50.194;7.690;2024-02-26T03:08:25;6.20;99.90
18450;DHT22;9354;50.194;7.690;2024-02-26T03:10:52;6.20;99.90
18450;DHT22;9354;50.194;7.690;2024-02-26T03:13:21;6.10;99.90
18450;DHT22;9354;50.194;7.690;2024-02-26T03:15:49;6.10;99.90
18450;DHT22;9354;50.194;7.690;2024-02-26T03:18:16;6.10;99.90
18450;DHT22;9354;50.194;7.690;2024-02-26T03:20:44;6.10;99.90
18450;DHT22;9354;50.194;7.690;2024-02-26T03:23:11;6.00;99.90
18450;DHT22;9354;50.194;7.690;2024-02-26T03:25:41;6.00;99.90
18450;DHT22;9354;50.194;7.690;2024-02-26T03:28:09;6.00;99.90
18450;DHT22;9354;50.194;7.690;2024-02-26T03:30:40;6.00;99.90
18450;DHT22;9354;50.194;7.690;2024-02-26T03:33:07;6.00;99.90
18450;DHT22;9354;50.194;7.690;2024-02-26T03:35:34;5.90;99.90
18450;DHT22;9354;50.194;7.690;2024-02-26T03:38:02;5.90;99.90
18450;DHT22;9354;50.194;7.690;2024-02-26T03:40:29;5.90;99.90
18450;DHT22;9354;50.194;7.690;2024-02-26T03:42:57;5.90;99.90
18450;DHT22;9354;50.194;7.690;2024-02-26T03:45:24;5.80;99.90
18450;DHT22;9354;50.194;7.690;2024-02-26T03:47:53;5.80;99.90
18450;DHT22;9354;50.194;7.690;2024-02-26T03:50:21;5.80;99.90
18450;DHT22;9354;50.194;7.690;2024-02-26T03:52:48;5.80;99.90
18450;DHT22;9354;50.194;7.690;2024-02-26T03:55:16;5.80;99.90
18450;DHT22;9354;50.194;7.690;2024-02-26T03:57:47;5.70;99.90
18450;DHT22;9354;50.194;7.690;2024-02-26T04:00:14;5.70;99.90
18450;DHT22;9354;50.194;7.690;2024-02-26T04:02:42;5.70;99.90
18450;DHT22;9354;50.194;7.690;2024-02-26T04:05:11;5.70;99.90
18450;DHT22;9354;50.194;7.690;2024-02-26T04:07:39;5.80;99.90
18450;DHT22;9354;50.194;7.690;2024-02-26T04:10:09;5.80;99.90
18450;DHT22;9354;50.194;7.690;2024-02-26T04:12:38;5.80;99.90
18450;DHT22;9354;50.194;7.690;2024-02-26T04:15:07;5.80;99.90
18450;DHT22;9354;50.194;7.690;2024-02-26T04:17:35;5.80;99.90
18450;DHT22;9354;50.194;7.690;2024-02-26T04:20:04;5.80;99.90
18450;DHT22;9354;50.194;7.690;2024-02-26T04:22:35;5.80;99.90
18450;DHT22;9354;50.194;7.690;2024-02-26T04:25:02;5.80;99.90
18450;DHT22;9354;50.194;7.690;2024-02-26T04:27:30;5.80;99.90
18450;DHT22;9354;50.194;7.690;2024-02-26T04:29:57;5.80;99.90
18450;DHT22;9354;50.194;7.690;2024-02-26T04:32:24;5.80;99.90
18450;DHT22;9354;50.194;7.690;2024-02-26T04:34:52;5.80;99.90
18450;DHT22;9354;50.194;7.690;2024-02-26T04:37:19;5.80;99.90
18450;DHT22;9354;50.194;7.690;2024-02-26T04:39:48;5.80;99.90
18450;DHT22;9354;50.194;7.690;2024-02-26T04:42:15;5.80;99.90
18450;DHT22;9354;50.194;7.690;2024-02-26T04:44:43;5.90;99.90
18450;DHT22;9354;50.194;7.690;2024-02-26T04:47:10;5.90;99.90
18450;DHT22;9354;50.194;7.690;2024-02-26T04:49:37;5.90;99.90
18450;DHT22;9354;50.194;7.690;2024-02-26T04:52:05;5.90;99.90
18450;DHT22;9354;50.194;7.690;2024-02-26T04:54:33;5.90;99.90
18450;DHT22;9354;50.194;7.690;2024-02-26T04:57:02;5.90;99.90
18450;DHT22;9354;50.194;7.690;2024-02-26T04:59:29;5.90;99.90
18450;DHT22;9354;50.194;7.690;2024-02-26T05:01:56;5.90;99.90
18450;DHT22;9354;50.194;7.690;2024-02-26T05:04:24;5.90;99.90
18450;DHT22;9354;50.194;7.690;2024-02-26T05:06:51;5.90;99.90
18450;DHT22;9354;50.194;7.690;2024-02-26T05:09:19;5.90;99.90
18450;DHT22;9354;50.194;7.690;2024-02-26T05:11:47;5.90;99.90
18450;DHT22;9354;50.194;7.690;2024-02-26T05:14:15;5.90;99.90
18450;DHT22;9354;50.194;7.690;2024-02-26T05:16:43;5.90;99.90
18450;DHT22;9354;50.194;7.690;2024-02-26T05:19:10;6.00;99.90
18450;DHT22;9354;50.194;7.690;2024-02-26T05:21:38;6.00;99.90
18450;DHT22;9354;50.194;7.690;2024-02-26T05:24:06;6.00;99.90
18450;DHT22;9354;50.194;7.690;2024-02-26T05:26:33;6.00;99.90
18450;DHT22;9354;50.194;7.690;2024-02-26T05:29:01;6.00;99.90
18450;DHT22;9354;50.194;7.690;2024-02-26T05:31:30;6.00;99.90
18450;DHT22;9354;50.194;7.690;2024-02-26T05:33:57;6.00;99.90
18450;DHT22;9354;50.194;7.690;2024-02-26T05:36:25;6.00;99.90
18450;DHT22;9354;50.194;7.690;2024-02-26T05:38:54;6.00;99.90
18450;DHT22;9354;50.194;7.690;2024-02-26T05:41:23;6.00;99.90
18450;DHT22;9354;50.194;7.690;2024-02-26T05:43:52;6.00;99.90
18450;DHT22;9354;50.194;7.690;2024-02-26T05:46:20;6.00;99.90
18450;DHT22;9354;50.194;7.690;2024-02-26T05:48:50;6.00;99.90
18450;DHT22;9354;50.194;7.690;2024-02-26T05:51:18;6.00;99.90
18450;DHT22;9354;50.194;7.690;2024-02-26T05:53:46;5.90;99.90
18450;DHT22;9354;50.194;7.690;2024-02-26T05:56:20;5.90;99.90
18450;DHT22;9354;50.194;7.690;2024-02-26T05:58:47;5.90;99.90
18450;DHT22;9354;50.194;7.690;2024-02-26T06:01:16;5.90;99.90
18450;DHT22;9354;50.194;7.690;2024-02-26T06:03:44;5.90;99.90
18450;DHT22;9354;50.194;7.690;2024-02-26T06:06:13;5.90;99.90
18450;DHT22;9354;50.194;7.690;2024-02-26T06:08:41;5.90;99.90
18450;DHT22;9354;50.194;7.690;2024-02-26T06:11:08;5.90;99.90
18450;DHT22;9354;50.194;7.690;2024-02-26T06:13:36;6.00;99.90
18450;DHT22;9354;50.194;7.690;2024-02-26T06:16:04;6.00;99.90
18450;DHT22;9354;50.194;7.690;2024-02-26T06:18:31;5.90;99.90
18450;DHT22;9354;50.194;7.690;2024-02-26T06:20:59;5.90;99.90
18450;DHT22;9354;50.194;7.690;2024-02-26T06:23:27;5.90;99.90
18450;DHT22;9354;50.194;7.690;2024-02-26T06:25:55;5.90;99.90
18450;DHT22;9354;50.194;7.690;2024-02-26T06:28:22;5.90;99.90
18450;DHT22;9354;50.194;7.690;2024-02-26T06:30:50;5.90;99.90
18450;DHT22;9354;50.194;7.690;2024-02-26T06:33:18;5.90;99.90
18450;DHT22;9354;50.194;7.690;2024-02-26T06:35:45;5.90;99.90
18450;DHT22;9354;50.194;7.690;2024-02-26T06:38:13;5.80;99.90
18450;DHT22;9354;50.194;7.690;2024-02-26T06:40:42;5.80;99.90
18450;DHT22;9354;50.194;7.690;2024-02-26T06:43:09;5.90;99.90
18450;DHT22;9354;50.194;7.690;2024-02-26T06:45:37;5.90;99.90
18450;DHT22;9354;50.194;7.690;2024-02-26T06:48:05;5.90;99.90
18450;DHT22;9354;50.194;7.690;2024-02-26T06:50:32;5.90;99.90
18450;DHT22;9354;50.194;7.690;2024-02-26T06:52:59;5.90;99.90
18450;DHT22;9354;50.194;7.690;2024-02-26T06:55:27;5.90;99.90
18450;DHT22;9354;50.194;7.690;2024-02-26T06:57:56;5.90;99.90
18450;DHT22;9354;50.194;7.690;2024-02-26T07:00:23;5.90;99.90
18450;DHT22;9354;50.194;7.690;2024-02-26T07:02:51;6.00;99.90
18450;DHT22;9354;50.194;7.690;2024-02-26T07:05:18;6.00;99.90
18450;DHT22;9354;50.194;7.690;2024-02-26T07:07:45;6.00;99.90
18450;DHT22;9354;50.194;7.690;2024-02-26T07:10:13;6.00;99.90
18450;DHT22;9354;50.194;7.690;2024-02-26T07:12:40;6.10;99.90
18450;DHT22;9354;50.194;7.690;2024-02-26T07:15:10;6.10;99.90
18450;DHT22;9354;50.194;7.690;2024-02-26T07:17:38;6.10;99.90
18450;DHT22;9354;50.194;7.690;2024-02-26T07:20:08;6.20;99.90
18450;DHT22;9354;50.194;7.690;2024-02-26T07:22:36;6.20;99.90
18450;DHT22;9354;50.194;7.690;2024-02-26T07:25:04;6.20;99.90
18450;DHT22;9354;50.194;7.690;2024-02-26T07:27:33;6.20;99.90
18450;DHT22;9354;50.194;7.690;2024-02-26T07:30:01;6.20;99.90
18450;DHT22;9354;50.194;7.690;2024-02-26T07:32:30;6.30;99.90
18450;DHT22;9354;50.194;7.690;2024-02-26T07:34:57;6.30;99.90
18450;DHT22;9354;50.194;7.690;2024-02-26T07:37:25;6.30;99.90
18450;DHT22;9354;50.194;7.690;2024-02-26T07:39:52;6.30;99.90
18450;DHT22;9354;50.194;7.690;2024-02-26T07:42:20;6.30;99.90
18450;DHT22;9354;50.194;7.690;2024-02-26T07:44:47;6.30;99.90
18450;DHT22;9354;50.194;7.690;2024-02-26T07:47:15;6.30;99.90
18450;DHT22;9354;50.194;7.690;2024-02-26T07:49:44;6.30;99.90
18450;DHT22;9354;50.194;7.690;2024-02-26T07:52:11;6.30;99.90
18450;DHT22;9354;50.194;7.690;2024-02-26T07:54:38;6.30;99.90
18450;DHT22;9354;50.194;7.690;2024-02-26T07:57:06;6.30;99.90
18450;DHT22;9354;50.194;7.690;2024-02-26T07:59:33;6.30;99.90
18450;DHT22;9354;50.194;7.690;2024-02-26T08:02:00;6.30;99.90
18450;DHT22;9354;50.194;7.690;2024-02-26T08:04:29;6.30;99.90
18450;DHT22;9354;50.194;7.690;2024-02-26T08:06:58;6.30;99.90
18450;DHT22;9354;50.194;7.690;2024-02-26T08:09:25;6.30;99.90
18450;DHT22;9354;50.194;7.690;2024-02-26T08:11:53;6.30;99.90
18450;DHT22;9354;50.194;7.690;2024-02-26T08:14:20;6.30;99.90
18450;DHT22;9354;50.194;7.690;2024-02-26T08:16:48;6.30;99.90
18450;DHT22;9354;50.194;7.690;2024-02-26T08:19:16;6.30;99.90
18450;DHT22;9354;50.194;7.690;2024-02-26T08:21:43;6.30;99.90
18450;DHT22;9354;50.194;7.690;2024-02-26T08:24:12;6.30;99.90
18450;DHT22;9354;50.194;7.690;2024-02-26T08:26:39;6.30;99.90
18450;DHT22;9354;50.194;7.690;2024-02-26T08:29:07;6.40;99.90
18450;DHT22;9354;50.194;7.690;2024-02-26T08:31:34;6.40;99.90
18450;DHT22;9354;50.194;7.690;2024-02-26T08:34:03;6.40;99.90
18450;DHT22;9354;50.194;7.690;2024-02-26T08:36:32;6.40;99.90
18450;DHT22;9354;50.194;7.690;2024-02-26T08:39:00;6.40;99.90
18450;DHT22;9354;50.194;7.690;2024-02-26T08:41:29;6.40;99.90
18450;DHT22;9354;50.194;7.690;2024-02-26T08:43:57;6.40;99.90
18450;DHT22;9354;50.194;7.690;2024-02-26T08:46:25;6.30;99.90
18450;DHT22;9354;50.194;7.690;2024-02-26T08:48:52;6.30;99.90
18450;DHT22;9354;50.194;7.690;2024-02-26T08:51:19;6.30;99.90
18450;DHT22;9354;50.194;7.690;2024-02-26T08:53:47;6.30;99.90
18450;DHT22;9354;50.194;7.690;2024-02-26T08:56:14;6.40;99.90
18450;DHT22;9354;50.194;7.690;2024-02-26T08:58:45;6.40;99.90
18450;DHT22;9354;50.194;7.690;2024-02-26T09:01:14;6.40;99.90
18450;DHT22;9354;50.194;7.690;2024-02-26T09:03:42;6.40;99.90
18450;DHT22;9354;50.194;7.690;2024-02-26T09:06:10;6.50;99.90
18450;DHT22;9354;50.194;7.690;2024-02-26T09:08:37;6.50;99.90
18450;DHT22;9354;50.194;7.690;2024-02-26T09:11:05;6.50;99.90
18450;DHT22;9354;50.194;7.690;2024-02-26T09:13:33;6.50;99.90
18450;DHT22;9354;50.194;7.690;2024-02-26T09:16:01;6.50;99.90
18450;DHT22;9354;50.194;7.690;2024-02-26T09:18:29;6.60;99.90
18450;DHT22;9354;50.194;7.690;2024-02-26T09:20:56;6.60;99.90
18450;DHT22;9354;50.194;7.690;2024-02-26T09:23:24;6.70;99.90
18450;DHT22;9354;50.194;7.690;2024-02-26T09:25:51;6.70;99.90
18450;DHT22;9354;50.194;7.690;2024-02-26T09:28:18;6.70;99.90
18450;DHT22;9354;50.194;7.690;2024-02-26T09:30:46;6.80;99.90
18450;DHT22;9354;50.194;7.690;2024-02-26T09:33:17;6.80;99.90
18450;DHT22;9354;50.194;7.690;2024-02-26T09:35:45;6.90;99.90
18450;DHT22;9354;50.194;7.690;2024-02-26T09:38:12;6.90;99.90
18450;DHT22;9354;50.194;7.690;2024-02-26T09:40:40;6.90;99.90
18450;DHT22;9354;50.194;7.690;2024-02-26T09:43:08;7.00;99.90
18450;DHT22;9354;50.194;7.690;2024-02-26T09:45:37;6.90;99.90
18450;DHT22;9354;50.194;7.690;2024-02-26T09:48:06;7.00;99.90
18450;DHT22;9354;50.194;7.690;2024-02-26T09:50:37;7.00;99.90
18450;DHT22;9354;50.194;7.690;2024-02-26T09:53:05;7.00;99.90
18450;DHT22;9354;50.194;7.690;2024-02-26T09:55:36;7.00;99.90
18450;DHT22;9354;50.194;7.690;2024-02-26T09:58:05;7.00;99.90
18450;DHT22;9354;50.194;7.690;2024-02-26T10:00:36;7.10;99.90
18450;DHT22;9354;50.194;7.690;2024-02-26T10:03:05;7.10;99.90
18450;DHT22;9354;50.194;7.690;2024-02-26T10:05:33;7.20;99.90
18450;DHT22;9354;50.194;7.690;2024-02-26T10:08:04;7.20;99.90
18450;DHT22;9354;50.194;7.690;2024-02-26T10:10:33;7.20;99.90
18450;DHT22;9354;50.194;7.690;2024-02-26T10:13:00;7.20;99.90
18450;DHT22;9354;50.194;7.690;2024-02-26T10:15:28;7.20;99.90
18450;DHT22;9354;50.194;7.690;2024-02-26T10:17:55;7.20;99.90
18450;DHT22;9354;50.194;7.690;2024-02-26T10:20:24;7.20;99.90
18450;DHT22;9354;50.194;7.690;2024-02-26T10:22:52;7.20;99.90
18450;DHT22;9354;50.194;7.690;2024-02-26T10:25:21;7.20;99.90
18450;DHT22;9354;50.194;7.690;2024-02-26T10:27:48;7.20;99.90
18450;DHT22;9354;50.194;7.690;2024-02-26T10:30:17;7.20;99.90
18450;DHT22;9354;50.194;7.690;2024-02-26T10:32:46;7.20;99.90
18450;DHT22;9354;50.194;7.690;2024-02-26T10:35:14;7.30;99.90
18450;DHT22;9354;50.194;7.690;2024-02-26T10:37:41;7.30;99.90
18450;DHT22;9354;50.194;7.690;2024-02-26T10:40:10;7.30;99.90
18450;DHT22;9354;50.194;7.690;2024-02-26T10:42:40;7.30;99.90
18450;DHT22;9354;50.194;7.690;2024-02-26T10:45:09;7.20;99.90
18450;DHT22;9354;50.194;7.690;2024-02-26T10:47:37;7.20;99.90
18450;DHT22;9354;50.194;7.690;2024-02-26T10:50:05;7.20;99.90
18450;DHT22;9354;50.194;7.690;2024-02-26T10:52:34;7.20;99.90
18450;DHT22;9354;50.194;7.690;2024-02-26T10:55:03;7.20;99.90
18450;DHT22;9354;50.194;7.690;2024-02-26T10:57:33;7.20;99.90
18450;DHT22;9354;50.194;7.690;2024-02-26T11:00:06;7.30;99.90
18450;DHT22;9354;50.194;7.690;2024-02-26T11:02:36;7.30;99.90
18450;DHT22;9354;50.194;7.690;2024-02-26T11:05:04;7.30;99.90
18450;DHT22;9354;50.194;7.690;2024-02-26T11:07:32;7.30;99.90
18450;DHT22;9354;50.194;7.690;2024-02-26T11:10:02;7.30;99.90
18450;DHT22;9354;50.194;7.690;2024-02-26T11:12:31;7.40;99.90
18450;DHT22;9354;50.194;7.690;2024-02-26T11:15:02;7.40;99.90
18450;DHT22;9354;50.194;7.690;2024-02-26T11:17:31;7.40;99.90
18450;DHT22;9354;50.194;7.690;2024-02-26T11:20:00;7.40;99.90
18450;DHT22;9354;50.194;7.690;2024-02-26T11:22:28;7.40;99.90
18450;DHT22;9354;50.194;7.690;2024-02-26T11:24:56;7.50;99.90
18450;DHT22;9354;50.194;7.690;2024-02-26T11:27:28;7.50;99.90
18450;DHT22;9354;50.194;7.690;2024-02-26T11:29:58;7.50;99.90
18450;DHT22;9354;50.194;7.690;2024-02-26T11:32:27;7.50;99.90
18450;DHT22;9354;50.194;7.690;2024-02-26T11:34:58;7.50;99.90
18450;DHT22;9354;50.194;7.690;2024-02-26T11:37:25;7.50;99.90
18450;DHT22;9354;50.194;7.690;2024-02-26T11:39:53;7.50;99.90
18450;DHT22;9354;50.194;7.690;2024-02-26T11:42:23;7.60;99.90
18450;DHT22;9354;50.194;7.690;2024-02-26T11:44:51;7.60;99.90
18450;DHT22;9354;50.194;7.690;2024-02-26T11:47:20;7.60;99.90
18450;DHT22;9354;50.194;7.690;2024-02-26T11:49:48;7.70;99.90
18450;DHT22;9354;50.194;7.690;2024-02-26T11:52:17;7.70;99.90
18450;DHT22;9354;50.194;7.690;2024-02-26T11:54:46;7.70;99.90
18450;DHT22;9354;50.194;7.690;2024-02-26T11:57:24;7.70;99.90
18450;DHT22;9354;50.194;7.690;2024-02-26T11:59:52;7.70;99.90
18450;DHT22;9354;50.194;7.690;2024-02-26T12:02:37;7.60;99.90
18450;DHT22;9354;50.194;7.690;2024-02-26T12:05:07;7.60;99.90
18450;DHT22;9354;50.194;7.690;2024-02-26T12:07:39;7.60;99.90
18450;DHT22;9354;50.194;7.690;2024-02-26T12:10:20;7.60;99.90
18450;DHT22;9354;50.194;7.690;2024-02-26T12:12:53;7.50;99.90
18450;DHT22;9354;50.194;7.690;2024-02-26T12:15:23;7.50;99.90
18450;DHT22;9354;50.194;7.690;2024-02-26T12:17:51;7.50;99.90
18450;DHT22;9354;50.194;7.690;2024-02-26T12:20:19;7.50;99.90
18450;DHT22;9354;50.194;7.690;2024-02-26T12:22:50;7.50;99.90
18450;DHT22;9354;50.194;7.690;2024-02-26T12:25:22;7.50;99.90
18450;DHT22;9354;50.194;7.690;2024-02-26T12:27:50;7.50;99.90
18450;DHT22;9354;50.194;7.690;2024-02-26T12:30:18;7.50;99.90
18450;DHT22;9354;50.194;7.690;2024-02-26T12:32:46;7.50;99.90
18450;DHT22;9354;50.194;7.690;2024-02-26T12:35:14;7.50;99.90
18450;DHT22;9354;50.194;7.690;2024-02-26T12:37:42;7.40;99.90
18450;DHT22;9354;50.194;7.690;2024-02-26T12:40:11;7.50;99.90
18450;DHT22;9354;50.194;7.690;2024-02-26T12:42:39;7.50;99.90
18450;DHT22;9354;50.194;7.690;2024-02-26T12:45:08;7.50;99.90
18450;DHT22;9354;50.194;7.690;2024-02-26T12:47:37;7.50;99.90
18450;DHT22;9354;50.194;7.690;2024-02-26T12:50:06;7.60;99.90
18450;DHT22;9354;50.194;7.690;2024-02-26T12:52:34;7.60;99.90
18450;DHT22;9354;50.194;7.690;2024-02-26T12:55:02;7.70;99.90
18450;DHT22;9354;50.194;7.690;2024-02-26T12:57:32;7.80;99.90
18450;DHT22;9354;50.194;7.690;2024-02-26T13:00:00;7.80;99.90
18450;DHT22;9354;50.194;7.690;2024-02-26T13:02:29;7.80;99.90
18450;DHT22;9354;50.194;7.690;2024-02-26T13:04:57;7.90;99.90
18450;DHT22;9354;50.194;7.690;2024-02-26T13:07:27;7.90;99.90
18450;DHT22;9354;50.194;7.690;2024-02-26T13:09:55;7.90;99.90
18450;DHT22;9354;50.194;7.690;2024-02-26T13:12:22;7.90;99.90
18450;DHT22;9354;50.194;7.690;2024-02-26T13:15:00;7.90;99.90
18450;DHT22;9354;50.194;7.690;2024-02-26T13:17:27;8.00;99.90
18450;DHT22;9354;50.194;7.690;2024-02-26T13:19:58;8.10;99.90
18450;DHT22;9354;50.194;7.690;2024-02-26T13:22:25;8.10;99.90
18450;DHT22;9354;50.194;7.690;2024-02-26T13:24:56;8.20;99.90
18450;DHT22;9354;50.194;7.690;2024-02-26T13:27:24;8.20;99.90
18450;DHT22;9354;50.194;7.690;2024-02-26T13:30:04;8.20;99.90
18450;DHT22;9354;50.194;7.690;2024-02-26T13:32:33;8.20;99.90
18450;DHT22;9354;50.194;7.690;2024-02-26T13:35:07;8.20;99.90
18450;DHT22;9354;50.194;7.690;2024-02-26T13:37:35;8.20;99.90
18450;DHT22;9354;50.194;7.690;2024-02-26T13:40:05;8.20;99.90
18450;DHT22;9354;50.194;7.690;2024-02-26T13:42:34;8.20;99.90
18450;DHT22;9354;50.194;7.690;2024-02-26T13:45:04;8.20;99.90
18450;DHT22;9354;50.194;7.690;2024-02-26T13:47:32;8.10;99.90
18450;DHT22;9354;50.194;7.690;2024-02-26T13:50:00;8.10;99.90
18450;DHT22;9354;50.194;7.690;2024-02-26T13:52:27;8.10;99.90
18450;DHT22;9354;50.194;7.690;2024-02-26T13:54:57;8.10;99.90
18450;DHT22;9354;50.194;7.690;2024-02-26T13:57:25;8.00;99.90
18450;DHT22;9354;50.194;7.690;2024-02-26T13:59:53;8.00;99.90
18450;DHT22;9354;50.194;7.690;2024-02-26T14:02:22;8.00;99.90
18450;DHT22;9354;50.194;7.690;2024-02-26T14:04:49;8.00;99.90
18450;DHT22;9354;50.194;7.690;2024-02-26T14:07:16;8.00;99.90
18450;DHT22;9354;50.194;7.690;2024-02-26T14:09:44;8.00;99.90
18450;DHT22;9354;50.194;7.690;2024-02-26T14:12:12;8.00;99.90
18450;DHT22;9354;50.194;7.690;2024-02-26T14:14:39;8.00;99.90
18450;DHT22;9354;50.194;7.690;2024-02-26T14:17:08;8.00;99.90
18450;DHT22;9354;50.194;7.690;2024-02-26T14:19:37;8.00;99.90
18450;DHT22;9354;50.194;7.690;2024-02-26T14:22:05;8.00;99.90
18450;DHT22;9354;50.194;7.690;2024-02-26T14:24:34;8.00;99.90
18450;DHT22;9354;50.194;7.690;2024-02-26T14:27:03;8.00;99.90
18450;DHT22;9354;50.194;7.690;2024-02-26T14:29:30;8.00;99.90
18450;DHT22;9354;50.194;7.690;2024-02-26T14:31:57;7.90;99.90
18450;DHT22;9354;50.194;7.690;2024-02-26T14:34:26;7.90;99.90
18450;DHT22;9354;50.194;7.690;2024-02-26T14:36:55;7.90;99.90
18450;DHT22;9354;50.194;7.690;2024-02-26T14:39:22;7.90;99.90
18450;DHT22;9354;50.194;7.690;2024-02-26T14:41:50;7.80;99.90
18450;DHT22;9354;50.194;7.690;2024-02-26T14:44:17;7.80;99.90
18450;DHT22;9354;50.194;7.690;2024-02-26T14:46:45;7.80;99.90
18450;DHT22;9354;50.194;7.690;2024-02-26T14:49:12;7.80;99.90
18450;DHT22;9354;50.194;7.690;2024-02-26T14:51:40;7.80;99.90
18450;DHT22;9354;50.194;7.690;2024-02-26T14:54:08;7.70;99.90
18450;DHT22;9354;50.194;7.690;2024-02-26T14:56:36;7.70;99.90
18450;DHT22;9354;50.194;7.690;2024-02-26T14:59:03;7.70;99.90
18450;DHT22;9354;50.194;7.690;2024-02-26T15:01:30;7.70;99.90
18450;DHT22;9354;50.194;7.690;2024-02-26T15:03:58;7.70;99.90
18450;DHT22;9354;50.194;7.690;2024-02-26T15:06:26;7.70;99.90
18450;DHT22;9354;50.194;7.690;2024-02-26T15:08:53;7.70;99.90
18450;DHT22;9354;50.194;7.690;2024-02-26T15:11:22;7.80;99.90
18450;DHT22;9354;50.194;7.690;2024-02-26T15:13:49;7.80;99.90
18450;DHT22;9354;50.194;7.690;2024-02-26T15:16:18;7.70;99.90
18450;DHT22;9354;50.194;7.690;2024-02-26T15:18:46;7.70;99.90
18450;DHT22;9354;50.194;7.690;2024-02-26T15:21:14;7.70;99.90
18450;DHT22;9354;50.194;7.690;2024-02-26T15:23:43;7.70;99.90
18450;DHT22;9354;50.194;7.690;2024-02-26T15:26:11;7.70;99.90
18450;DHT22;9354;50.194;7.690;2024-02-26T15:28:41;7.70;99.90
18450;DHT22;9354;50.194;7.690;2024-02-26T15:31:08;7.70;99.90
18450;DHT22;9354;50.194;7.690;2024-02-26T15:33:36;7.70;99.90
18450;DHT22;9354;50.194;7.690;2024-02-26T15:36:05;7.70;99.90
18450;DHT22;9354;50.194;7.690;2024-02-26T15:38:36;7.70;99.90
18450;DHT22;9354;50.194;7.690;2024-02-26T15:41:10;7.60;99.90
18450;DHT22;9354;50.194;7.690;2024-02-26T15:43:39;7.60;99.90
18450;DHT22;9354;50.194;7.690;2024-02-26T15:46:08;7.60;99.90
18450;DHT22;9354;50.194;7.690;2024-02-26T15:48:36;7.60;99.90
18450;DHT22;9354;50.194;7.690;2024-02-26T15:51:05;7.60;99.90
18450;DHT22;9354;50.194;7.690;2024-02-26T15:53:32;7.60;99.90
18450;DHT22;9354;50.194;7.690;2024-02-26T15:56:00;7.60;99.90
18450;DHT22;9354;50.194;7.690;2024-02-26T15:58:28;7.60;99.90
18450;DHT22;9354;50.194;7.690;2024-02-26T16:00:55;7.60;99.90
18450;DHT22;9354;50.194;7.690;2024-02-26T16:03:24;7.60;99.90
18450;DHT22;9354;50.194;7.690;2024-02-26T16:05:51;7.60;99.90
18450;DHT22;9354;50.194;7.690;2024-02-26T16:08:21;7.60;99.90